createdAt,value
2022-08-23T00:00:14.168Z,20.90
2022-08-23T00:02:45.332Z,20.90
2022-08-23T00:05:16.818Z,20.90
2022-08-23T00:07:45.552Z,20.90
2022-08-23T00:10:17.997Z,21.00
2022-08-23T00:12:50.370Z,21.00
2022-08-23T00:15:20.557Z,21.00
2022-08-23T00:17:51.398Z,21.00
2022-08-23T00:20:23.303Z,21.00
2022-08-23T00:22:52.476Z,21.00
2022-08-23T00:25:26.957Z,21.10
2022-08-23T00:27:57.018Z,21.10
2022-08-23T00:30:31.269Z,21.00
2022-08-23T00:32:58.504Z,21.00
2022-08-23T00:35:30.587Z,21.00
2022-08-23T00:38:32.371Z,21.10
2022-08-23T00:41:00.072Z,21.10
2022-08-23T00:43:58.838Z,21.00
2022-08-23T00:47:19.828Z,21.00
2022-08-23T00:49:54.209Z,21.00
2022-08-23T00:52:41.500Z,21.00
2022-08-23T00:55:10.124Z,21.00
2022-08-23T00:58:01.365Z,21.00
2022-08-23T01:00:32.718Z,21.00
2022-08-23T01:03:04.763Z,21.00
2022-08-23T01:06:01.535Z,21.00
2022-08-23T01:08:35.496Z,20.90
2022-08-23T01:11:17.355Z,21.00
2022-08-23T01:14:08.855Z,21.00
2022-08-23T01:16:53.445Z,20.90
2022-08-23T01:19:55.598Z,20.90
2022-08-23T01:22:58.452Z,20.90
2022-08-23T01:25:31.538Z,20.90
2022-08-23T01:28:04.100Z,20.80
2022-08-23T01:33:22.349Z,20.80
2022-08-23T01:35:58.176Z,20.60
2022-08-23T01:38:30.418Z,20.60
2022-08-23T01:41:02.629Z,20.50
2022-08-23T01:43:34.090Z,20.60
2022-08-23T01:46:20.712Z,20.50
2022-08-23T01:48:53.189Z,20.50
2022-08-23T01:51:25.228Z,20.40
2022-08-23T01:53:56.865Z,20.40
2022-08-23T01:56:39.055Z,20.40
2022-08-23T01:59:15.725Z,20.40
2022-08-23T02:01:51.120Z,20.40
2022-08-23T02:04:18.638Z,20.30
2022-08-23T02:06:50.894Z,20.30
2022-08-23T02:09:29.600Z,20.30
2022-08-23T02:12:05.106Z,20.30
2022-08-23T02:14:37.786Z,20.30
2022-08-23T02:17:12.764Z,20.30
2022-08-23T02:19:42.210Z,20.30
2022-08-23T02:22:13.893Z,20.30
2022-08-23T02:24:56.087Z,20.30
2022-08-23T02:27:27.234Z,20.30
2022-08-23T02:29:59.136Z,20.30
2022-08-23T02:32:29.875Z,20.40
2022-08-23T02:35:05.202Z,20.40
2022-08-23T02:37:39.017Z,20.20
2022-08-23T02:40:09.453Z,20.00
2022-08-23T02:42:42.224Z,20.00
2022-08-23T02:45:13.311Z,20.10
2022-08-23T02:47:49.238Z,20.10
2022-08-23T02:50:31.228Z,20.10
2022-08-23T02:53:03.622Z,20.00
2022-08-23T02:55:35.844Z,19.90
2022-08-23T02:58:08.185Z,19.90
2022-08-23T03:00:36.882Z,19.90
2022-08-23T03:03:08.059Z,19.80
2022-08-23T03:05:39.957Z,19.80
2022-08-23T03:08:11.101Z,19.80
2022-08-23T03:10:50.461Z,19.80
2022-08-23T03:13:18.457Z,19.90
2022-08-23T03:15:50.398Z,19.90
2022-08-23T03:18:21.023Z,19.90
2022-08-23T03:20:54.152Z,19.90
2022-08-23T03:23:24.916Z,19.90
2022-08-23T03:25:55.590Z,19.90
2022-08-23T03:28:32.209Z,19.90
2022-08-23T03:31:03.440Z,20.00
2022-08-23T03:33:35.582Z,20.00
2022-08-23T03:36:11.648Z,20.00
2022-08-23T03:38:42.773Z,20.10
2022-08-23T03:41:15.221Z,20.00
2022-08-23T03:43:45.236Z,20.00
2022-08-23T03:46:34.181Z,20.00
2022-08-23T03:49:04.820Z,20.00
2022-08-23T03:51:45.763Z,19.90
2022-08-23T03:54:17.323Z,19.80
2022-08-23T03:57:08.680Z,19.80
2022-08-23T03:59:40.737Z,19.90
2022-08-23T04:02:14.431Z,19.90
2022-08-23T04:04:45.310Z,20.00
2022-08-23T04:07:33.361Z,20.10
2022-08-23T04:10:05.940Z,20.00
2022-08-23T04:12:40.076Z,20.00
2022-08-23T04:15:16.174Z,20.00
2022-08-23T04:17:46.097Z,20.00
2022-08-23T04:20:19.272Z,20.00
2022-08-23T04:22:57.752Z,20.10
2022-08-23T04:25:33.539Z,20.10
2022-08-23T04:28:09.384Z,20.10
2022-08-23T04:30:40.037Z,20.10
2022-08-23T04:33:14.169Z,20.10
2022-08-23T04:35:46.468Z,20.10
2022-08-23T04:38:25.111Z,20.10
2022-08-23T04:41:28.188Z,20.60
2022-08-23T04:44:18.099Z,20.00
2022-08-23T04:46:50.772Z,19.90
2022-08-23T04:49:21.655Z,20.00
2022-08-23T04:52:01.424Z,20.00
2022-08-23T04:54:31.928Z,20.00
2022-08-23T04:57:28.477Z,20.00
2022-08-23T04:59:57.517Z,20.10
2022-08-23T05:02:28.525Z,20.10
2022-08-23T05:04:59.886Z,20.10
2022-08-23T05:07:41.758Z,20.10
2022-08-23T05:10:20.489Z,20.00
2022-08-23T05:12:58.237Z,19.90
2022-08-23T05:15:28.117Z,19.90
2022-08-23T05:18:06.250Z,20.00
2022-08-23T05:20:39.916Z,20.00
2022-08-23T05:23:10.538Z,20.00
2022-08-23T05:25:58.878Z,20.00
2022-08-23T05:28:36.709Z,20.10
2022-08-23T05:31:33.257Z,20.20
2022-08-23T05:34:07.577Z,20.10
2022-08-23T05:36:57.105Z,20.10
2022-08-23T05:39:37.070Z,20.20
2022-08-23T05:42:16.252Z,20.00
2022-08-23T05:44:52.121Z,19.90
2022-08-23T05:47:24.971Z,20.00
2022-08-23T05:50:34.342Z,19.90
2022-08-23T05:53:06.621Z,19.90
2022-08-23T05:55:36.545Z,19.80
2022-08-23T05:58:18.352Z,19.80
2022-08-23T06:00:53.841Z,19.70
2022-08-23T06:03:26.295Z,19.70
2022-08-23T06:05:58.975Z,19.70
2022-08-23T06:08:31.021Z,19.70
2022-08-23T06:11:25.030Z,19.60
2022-08-23T06:14:02.242Z,19.70
2022-08-23T06:16:37.084Z,19.70
2022-08-23T06:19:08.464Z,19.70
2022-08-23T06:24:43.146Z,19.80
2022-08-23T06:27:18.949Z,19.90
2022-08-23T06:29:50.169Z,20.00
2022-08-23T06:32:37.472Z,20.00
2022-08-23T06:35:38.223Z,20.10
2022-08-23T06:38:37.580Z,19.90
2022-08-23T06:41:28.895Z,20.00
2022-08-23T06:44:26.212Z,20.00
2022-08-23T06:47:14.176Z,20.00
2022-08-23T06:49:54.652Z,19.90
2022-08-23T06:52:52.333Z,19.80
2022-08-23T06:55:31.667Z,19.90
2022-08-23T06:58:18.470Z,19.90
2022-08-23T07:01:51.822Z,20.00
2022-08-23T07:04:33.065Z,20.00
2022-08-23T07:07:44.155Z,20.10
2022-08-23T07:10:16.831Z,20.00
2022-08-23T07:12:50.623Z,20.00
2022-08-23T07:15:23.289Z,20.10
2022-08-23T07:17:54.242Z,20.10
2022-08-23T07:20:31.923Z,20.20
2022-08-23T07:23:01.582Z,20.20
2022-08-23T07:25:32.455Z,20.30
2022-08-23T07:28:11.902Z,20.30
2022-08-23T07:30:45.295Z,20.30
2022-08-23T07:33:18.577Z,20.40
2022-08-23T07:36:18.662Z,20.30
2022-08-23T07:39:11.477Z,20.30
2022-08-23T07:41:38.846Z,20.20
2022-08-23T07:44:10.117Z,20.20
2022-08-23T07:46:46.865Z,20.20
2022-08-23T07:49:18.324Z,20.20
2022-08-23T07:51:52.131Z,20.20
2022-08-23T07:54:25.896Z,20.20
2022-08-23T07:57:11.625Z,20.20
2022-08-23T08:00:11.525Z,20.20
2022-08-23T08:03:05.775Z,20.30
2022-08-23T08:06:17.834Z,20.30
2022-08-23T08:09:09.105Z,20.40
2022-08-23T08:11:43.786Z,20.40
2022-08-23T08:14:19.718Z,20.50
2022-08-23T08:17:32.837Z,20.40
2022-08-23T08:20:24.430Z,20.40
2022-08-23T08:23:13.324Z,20.40
2022-08-23T08:26:09.870Z,20.40
2022-08-23T08:28:39.230Z,20.40
2022-08-23T08:31:18.439Z,20.30
2022-08-23T08:33:48.252Z,20.30
2022-08-23T08:36:53.458Z,20.30
2022-08-23T08:39:38.009Z,20.30
2022-08-23T08:42:46.541Z,20.30
2022-08-23T08:45:30.259Z,20.30
2022-08-23T08:48:18.923Z,20.30
2022-08-23T08:51:01.698Z,20.30
2022-08-23T08:53:40.381Z,20.30
2022-08-23T08:56:33.514Z,20.30
2022-08-23T08:59:48.074Z,20.30
2022-08-23T09:02:32.872Z,20.30
2022-08-23T09:05:14.682Z,20.30
2022-08-23T09:08:19.255Z,20.30
2022-08-23T09:11:28.443Z,20.30
2022-08-23T09:14:19.097Z,20.40
2022-08-23T09:17:05.540Z,20.40
2022-08-23T09:19:40.960Z,20.40
2022-08-23T09:22:40.093Z,20.40
2022-08-23T09:25:18.900Z,20.50
2022-08-23T09:27:58.628Z,20.70
2022-08-23T09:30:48.243Z,20.70
2022-08-23T09:33:19.023Z,20.90
2022-08-23T09:36:22.597Z,20.90
2022-08-23T09:39:31.550Z,20.90
2022-08-23T09:42:31.386Z,21.00
2022-08-23T09:45:03.171Z,21.10
2022-08-23T09:47:44.124Z,21.10
2022-08-23T09:50:50.443Z,21.20
2022-08-23T09:53:31.349Z,21.10
2022-08-23T09:56:28.803Z,21.00
2022-08-23T09:58:59.048Z,21.00
2022-08-23T10:01:54.441Z,21.00
2022-08-23T10:04:40.785Z,21.10
2022-08-23T10:07:43.904Z,21.00
2022-08-23T10:10:54.519Z,21.10
2022-08-23T10:13:36.171Z,21.20
2022-08-23T10:16:31.990Z,21.40
2022-08-23T10:19:41.044Z,21.50
2022-08-23T10:22:25.465Z,21.70
2022-08-23T10:25:59.171Z,21.90
2022-08-23T10:29:07.570Z,21.90
2022-08-23T10:32:07.704Z,22.00
2022-08-23T10:35:06.930Z,22.20
2022-08-23T10:38:13.288Z,22.50
2022-08-23T10:41:03.013Z,22.40
2022-08-23T10:43:59.585Z,22.30
2022-08-23T10:46:33.247Z,22.20
2022-08-23T10:49:09.615Z,22.20
2022-08-23T10:51:53.475Z,22.10
2022-08-23T10:55:00.354Z,22.00
2022-08-23T10:57:54.397Z,22.00
2022-08-23T11:00:50.902Z,21.90
2022-08-23T11:03:43.380Z,21.80
2022-08-23T11:06:42.209Z,21.70
2022-08-23T11:09:33.542Z,21.60
2022-08-23T11:12:24.175Z,21.50
2022-08-23T11:15:14.237Z,21.40
2022-08-23T11:18:00.036Z,21.40
2022-08-23T11:20:56.353Z,21.30
2022-08-23T11:23:46.845Z,21.20
2022-08-23T11:26:44.501Z,21.20
2022-08-23T11:29:34.371Z,21.20
2022-08-23T11:32:44.778Z,21.30
2022-08-23T11:35:46.388Z,21.30
2022-08-23T11:38:40.721Z,21.30
2022-08-23T11:41:20.375Z,21.40
2022-08-23T11:44:09.949Z,21.40
2022-08-23T11:46:57.622Z,21.50
2022-08-23T11:49:52.211Z,21.60
2022-08-23T11:53:23.178Z,21.60
2022-08-23T11:56:28.302Z,21.60
2022-08-23T11:59:38.506Z,21.50
2022-08-23T12:02:44.376Z,21.60
2022-08-23T12:05:45.265Z,21.60
2022-08-23T12:08:13.959Z,21.60
2022-08-23T12:10:46.145Z,21.60
2022-08-23T12:13:32.786Z,21.60
2022-08-23T12:16:24.808Z,21.60
2022-08-23T12:18:59.346Z,21.60
2022-08-23T12:21:56.765Z,21.60
2022-08-23T12:24:58.535Z,21.70
2022-08-23T12:28:00.119Z,21.80
2022-08-23T12:30:46.143Z,21.70
2022-08-23T12:33:48.108Z,21.70
2022-08-23T12:36:35.916Z,21.70
2022-08-23T12:39:29.643Z,21.70
2022-08-23T12:42:09.712Z,21.70
2022-08-23T12:44:42.894Z,21.70
2022-08-23T12:47:23.637Z,21.80
2022-08-23T12:50:15.123Z,21.70
2022-08-23T12:52:55.599Z,21.60
2022-08-23T12:55:34.804Z,21.60
2022-08-23T12:58:05.483Z,21.60
2022-08-23T13:00:54.174Z,21.60
2022-08-23T13:03:36.446Z,21.50
2022-08-23T13:06:15.218Z,21.60
2022-08-23T13:08:57.121Z,21.60
2022-08-23T13:11:35.428Z,21.70
2022-08-23T13:14:26.199Z,21.80
2022-08-23T13:17:25.812Z,22.00
2022-08-23T13:20:26.144Z,22.10
2022-08-23T13:23:20.569Z,22.20
2022-08-23T13:25:54.146Z,22.10
2022-08-23T13:28:27.949Z,22.10
2022-08-23T13:31:22.149Z,22.00
2022-08-23T13:33:57.839Z,22.00
2022-08-23T13:36:30.995Z,21.90
2022-08-23T13:39:06.161Z,21.90
2022-08-23T13:41:39.372Z,21.90
2022-08-23T13:44:18.395Z,22.00
2022-08-23T13:46:48.345Z,22.10
2022-08-23T13:49:31.909Z,22.20
2022-08-23T13:52:33.379Z,22.20
2022-08-23T13:54:53.753Z,22.10
2022-08-23T13:57:29.607Z,21.90
2022-08-23T14:00:03.069Z,21.70
2022-08-23T14:02:53.492Z,21.60
2022-08-23T14:05:25.818Z,21.50
2022-08-23T14:07:55.778Z,21.50
2022-08-23T14:10:44.370Z,21.50
2022-08-23T14:13:17.147Z,21.50
2022-08-23T14:19:17.936Z,21.50
2022-08-23T14:21:29.842Z,21.30
2022-08-23T14:23:59.952Z,21.30
2022-08-23T14:26:31.586Z,21.30
2022-08-23T14:31:43.537Z,21.20
2022-08-23T14:34:15.225Z,21.10
2022-08-23T14:39:35.376Z,21.10
2022-08-23T14:42:10.892Z,21.10
2022-08-23T14:44:42.140Z,21.10
2022-08-23T14:47:10.774Z,21.10
2022-08-23T14:49:39.759Z,21.10
2022-08-23T14:52:10.375Z,21.10
2022-08-23T14:54:42.673Z,21.10
2022-08-23T14:57:24.098Z,21.10
2022-08-23T14:59:53.732Z,21.10
2022-08-23T15:02:26.059Z,21.00
2022-08-23T15:04:57.968Z,21.10
2022-08-23T15:07:29.828Z,21.10
2022-08-23T15:09:59.784Z,21.10
2022-08-23T15:15:25.389Z,21.20
2022-08-23T15:18:00.163Z,21.20
2022-08-23T15:20:34.420Z,21.30
2022-08-23T15:23:05.853Z,21.20
2022-08-23T15:25:41.881Z,21.20
2022-08-23T15:28:32.410Z,21.30
2022-08-23T15:31:05.407Z,21.30
2022-08-23T15:33:34.900Z,21.40
2022-08-23T15:36:08.145Z,21.40
2022-08-23T15:38:39.882Z,21.40
2022-08-23T15:41:08.964Z,21.40
2022-08-23T15:46:27.417Z,21.40
2022-08-23T15:49:03.837Z,21.30
2022-08-23T15:51:41.661Z,21.30
2022-08-23T15:54:13.892Z,21.30
2022-08-23T15:57:01.680Z,21.30
2022-08-23T15:59:43.534Z,21.30
2022-08-23T16:02:15.939Z,21.30
2022-08-23T16:04:45.539Z,21.30
2022-08-23T16:07:23.719Z,21.30
2022-08-23T16:09:53.928Z,21.30
2022-08-23T16:12:24.742Z,21.30
2022-08-23T16:15:02.064Z,21.30
2022-08-23T16:17:33.488Z,21.40
2022-08-23T16:20:05.765Z,21.30
2022-08-23T16:22:37.769Z,21.30
2022-08-23T16:25:09.363Z,21.30
2022-08-23T16:27:43.532Z,21.30
2022-08-23T16:30:15.688Z,21.30
2022-08-23T16:32:46.145Z,21.30
2022-08-23T16:35:19.375Z,21.30
2022-08-23T16:37:49.960Z,21.30
2022-08-23T16:40:21.808Z,21.30
2022-08-23T16:42:52.569Z,21.30
2022-08-23T16:45:25.813Z,21.30
2022-08-23T16:47:59.618Z,21.30
2022-08-23T16:50:29.837Z,21.30
2022-08-23T16:53:03.667Z,21.30
2022-08-23T16:55:38.796Z,21.30
2022-08-23T16:58:08.810Z,21.30
2022-08-23T17:00:40.027Z,21.30
2022-08-23T17:03:10.045Z,21.20
2022-08-23T17:05:44.264Z,21.20
2022-08-23T17:08:15.157Z,21.20
2022-08-23T17:10:48.134Z,21.20
2022-08-23T17:13:21.403Z,21.10
2022-08-23T17:15:54.204Z,21.10
2022-08-23T17:18:23.240Z,21.10
2022-08-23T17:20:51.028Z,21.00
2022-08-23T17:23:19.737Z,21.00
2022-08-23T17:25:51.864Z,21.00
2022-08-23T17:28:24.330Z,20.90
2022-08-23T17:30:57.118Z,20.90
2022-08-23T17:33:28.284Z,20.80
2022-08-23T17:36:00.009Z,20.70
2022-08-23T17:38:28.928Z,20.70
2022-08-23T17:41:02.956Z,20.60
2022-08-23T17:43:34.604Z,20.60
2022-08-23T17:46:04.923Z,20.60
2022-08-23T17:48:37.008Z,20.70
2022-08-23T17:51:05.337Z,20.70
2022-08-23T17:53:36.865Z,20.70
2022-08-23T17:56:11.682Z,20.70
2022-08-23T17:58:44.228Z,20.70
2022-08-23T18:01:14.815Z,20.60
2022-08-23T18:03:45.811Z,20.70
2022-08-23T18:06:17.191Z,20.60
2022-08-23T18:08:50.123Z,20.50
2022-08-23T18:11:20.917Z,20.60
2022-08-23T18:13:52.519Z,20.60
2022-08-23T18:16:23.862Z,20.60
2022-08-23T18:18:52.412Z,20.70
2022-08-23T18:21:28.861Z,20.60
2022-08-23T18:24:04.315Z,20.70
2022-08-23T18:26:51.478Z,20.70
2022-08-23T18:29:23.146Z,20.70
2022-08-23T18:31:55.267Z,20.70
2022-08-23T18:34:24.181Z,20.60
2022-08-23T18:36:56.308Z,20.70
2022-08-23T18:39:31.445Z,20.60
2022-08-23T18:42:07.797Z,20.60
2022-08-23T18:44:37.825Z,20.60
2022-08-23T18:47:09.914Z,20.60
2022-08-23T18:49:41.360Z,20.60
2022-08-23T18:52:11.362Z,20.60
2022-08-23T18:54:41.342Z,20.60
2022-08-23T18:57:09.034Z,20.60
2022-08-23T18:59:46.150Z,20.60
2022-08-23T19:02:13.877Z,20.60
2022-08-23T19:04:45.747Z,20.60
2022-08-23T19:07:14.162Z,20.60
2022-08-23T19:09:45.203Z,20.60
2022-08-23T19:12:23.439Z,20.50
2022-08-23T19:14:54.073Z,20.50
2022-08-23T19:17:27.586Z,20.50
2022-08-23T19:19:59.593Z,20.50
2022-08-23T19:22:30.078Z,20.50
2022-08-23T19:25:00.709Z,20.40
2022-08-23T19:27:34.513Z,20.40
2022-08-23T19:30:09.747Z,20.40
2022-08-23T19:32:44.484Z,20.40
2022-08-23T19:35:16.762Z,20.40
2022-08-23T19:37:48.182Z,20.40
2022-08-23T19:40:20.934Z,20.30
2022-08-23T19:43:03.330Z,20.30
2022-08-23T19:45:32.718Z,20.30
2022-08-23T19:48:06.031Z,20.20
2022-08-23T19:50:35.416Z,20.20
2022-08-23T19:53:08.575Z,20.20
2022-08-23T19:55:43.333Z,20.20
2022-08-23T19:58:16.021Z,20.20
2022-08-23T20:00:47.945Z,20.10
2022-08-23T20:03:16.988Z,20.10
2022-08-23T20:05:45.482Z,20.10
2022-08-23T20:08:15.892Z,20.10
2022-08-23T20:10:45.491Z,20.00
2022-08-23T20:13:12.920Z,20.00
2022-08-23T20:15:42.870Z,20.00
2022-08-23T20:18:14.298Z,20.00
2022-08-23T20:20:44.650Z,20.00
2022-08-23T20:23:35.312Z,20.00
2022-08-23T20:26:04.119Z,20.00
2022-08-23T20:28:35.504Z,20.00
2022-08-23T20:31:23.395Z,20.00
2022-08-23T20:33:56.218Z,20.00
2022-08-23T20:36:30.384Z,20.00
2022-08-23T20:39:02.462Z,19.90
2022-08-23T20:41:46.197Z,19.90
2022-08-23T20:44:17.793Z,19.90
2022-08-23T20:46:53.200Z,19.90
2022-08-23T20:49:25.989Z,19.90
2022-08-23T20:52:02.650Z,19.90
2022-08-23T20:54:33.810Z,19.80
2022-08-23T20:57:06.509Z,19.80
2022-08-23T20:59:35.383Z,19.80
2022-08-23T21:04:47.903Z,19.90
2022-08-23T21:07:18.437Z,19.90
2022-08-23T21:09:53.575Z,19.90
2022-08-23T21:12:23.536Z,19.90
2022-08-23T21:14:54.740Z,19.90
2022-08-23T21:17:25.701Z,19.90
2022-08-23T21:19:54.911Z,19.90
2022-08-23T21:22:32.016Z,19.90
2022-08-23T21:25:06.268Z,19.80
2022-08-23T21:27:37.629Z,19.90
2022-08-23T21:30:10.300Z,19.90
2022-08-23T21:32:40.228Z,19.90
2022-08-23T21:35:13.616Z,19.90
2022-08-23T21:37:43.140Z,19.80
2022-08-23T21:40:15.426Z,19.80
2022-08-23T21:42:49.385Z,19.80
2022-08-23T21:45:19.345Z,19.80
2022-08-23T21:47:50.473Z,19.80
2022-08-23T21:50:20.231Z,19.80
2022-08-23T21:52:56.883Z,19.80
2022-08-23T21:55:30.098Z,19.80
2022-08-23T21:58:05.613Z,19.80
2022-08-23T22:03:22.562Z,19.90
2022-08-23T22:05:50.068Z,19.90
2022-08-23T22:08:19.568Z,19.90
2022-08-23T22:10:57.529Z,19.90
2022-08-23T22:13:29.378Z,19.90
2022-08-23T22:16:04.441Z,19.80
2022-08-23T22:18:32.373Z,19.80
2022-08-23T22:21:04.940Z,19.80
2022-08-23T22:23:35.749Z,19.80
2022-08-23T22:26:26.722Z,19.80
2022-08-23T22:28:57.022Z,19.80
2022-08-23T22:31:29.123Z,19.80
2022-08-23T22:33:58.973Z,19.80
2022-08-23T22:36:30.554Z,19.80
2022-08-23T22:39:02.180Z,19.80
2022-08-23T22:41:33.159Z,19.80
2022-08-23T22:46:48.385Z,19.80
2022-08-23T22:49:19.782Z,19.80
2022-08-23T22:51:54.910Z,19.70
2022-08-23T22:54:29.817Z,19.70
2022-08-23T22:57:04.985Z,19.70
2022-08-23T22:59:41.425Z,19.70
2022-08-23T23:02:16.431Z,19.60
2022-08-23T23:04:51.041Z,19.60
2022-08-23T23:07:40.397Z,19.60
2022-08-23T23:10:11.346Z,19.60
2022-08-23T23:12:40.432Z,19.60
2022-08-23T23:15:12.199Z,19.60
2022-08-23T23:17:41.658Z,19.60
2022-08-23T23:20:31.461Z,19.60
2022-08-23T23:23:03.450Z,19.60
2022-08-23T23:25:39.363Z,19.60
2022-08-23T23:28:10.171Z,19.60
2022-08-23T23:30:39.531Z,19.60
2022-08-23T23:33:09.740Z,19.60
2022-08-23T23:35:39.675Z,19.60
2022-08-23T23:38:11.900Z,19.60
2022-08-23T23:40:41.752Z,19.60
2022-08-23T23:43:14.378Z,19.60
2022-08-23T23:45:42.614Z,19.50
2022-08-23T23:48:13.216Z,19.50
2022-08-23T23:50:47.000Z,19.50
2022-08-23T23:53:20.011Z,19.50
2022-08-23T23:56:00.774Z,19.50
2022-08-23T23:58:29.557Z,19.60
